Terminal Aerodrome Forecast
Issued by NWS

Home | Current Version | Previous Version | Text Only | Print | Product List | Glossary On
Versions: 1 2 3 4 5 6 7 8 9 10 11 12 13 14 15 16 17 18 19 20 21 22 23 24 25
000
FTUS41 KPBZ 051937 AAA
TAFMGW
TAF AMD
KMGW 051937Z 0520/0618 VRB04KT P6SM FEW050 BKN250
     FM052100 17008KT P6SM -SHRA SCT040 BKN050
     FM060000 12005KT P6SM VCSH BKN060
     FM061100 14004KT 6SM -SHRA BKN030
     FM061600 18005KT 6SM -SHRA VCTS BKN025CB OVC040=

USA.gov is the U.S. government's official web portal to all federal, state and local government web resources and services.